TAT21SB LBSF-LQMO
Flight info
| Callsign | TAT21SB |
|---|---|
| Flight time | 0h 52m |
| Altitude | 24000 |
| Route | GODEK3T/27 GODEK DCT NII DCT KEB P10 XELMI |
| Aircraft | F28/M-SDFIRWY/H |
Departure
| Time | 2026-04-23 15:26 |
|---|---|
| Airport | Sofia Airport (LBSF) |
Arrival
| Time | 2026-04-23 16:18 |
|---|---|
| Airport | Mostar International Airport (LQMO) |
| Time | Latitude | Longitude | Altitude | Speed | Heading |
|---|---|---|---|---|---|
| 2026-04-23 15:12 | 42.68972 | 23.40866 | 1750 ft | 0 kts | 162° |
| 2026-04-23 15:16 | 42.68978 | 23.40863 | 1746 ft | 4 kts | 162° |
| 2026-04-23 15:16 | 42.69004 | 23.40852 | 1743 ft | 4 kts | 162° |
| 2026-04-23 15:16 | 42.69030 | 23.40841 | 1745 ft | 4 kts | 161° |
| 2026-04-23 15:17 | 42.69049 | 23.40830 | 1748 ft | 2 kts | 148° |
| 2026-04-23 15:17 | 42.69057 | 23.40819 | 1748 ft | 2 kts | 108° |
| 2026-04-23 15:17 | 42.69057 | 23.40804 | 1744 ft | 2 kts | 83° |
| 2026-04-23 15:17 | 42.69057 | 23.40799 | 1744 ft | 0 kts | 81° |
| 2026-04-23 15:19 | 42.69057 | 23.40800 | 1744 ft | 1 kts | 81° |
| 2026-04-23 15:19 | 42.69072 | 23.40868 | 1748 ft | 11 kts | 72° |
| 2026-04-23 15:20 | 42.69090 | 23.40940 | 1746 ft | 14 kts | 71° |
| 2026-04-23 15:20 | 42.69158 | 23.41129 | 1746 ft | 20 kts | 28° |
| 2026-04-23 15:20 | 42.69301 | 23.41174 | 1750 ft | 22 kts | 9° |
| 2026-04-23 15:20 | 42.69449 | 23.41219 | 1745 ft | 22 kts | 27° |
| 2026-04-23 15:21 | 42.69480 | 23.41379 | 1746 ft | 20 kts | 96° |
| 2026-04-23 15:21 | 42.69464 | 23.41588 | 1747 ft | 24 kts | 96° |
| 2026-04-23 15:21 | 42.69449 | 23.41837 | 1747 ft | 28 kts | 94° |
| 2026-04-23 15:21 | 42.69437 | 23.42122 | 1750 ft | 32 kts | 92° |
| 2026-04-23 15:22 | 42.69425 | 23.42440 | 1750 ft | 35 kts | 97° |
| 2026-04-23 15:22 | 42.69407 | 23.42659 | 1746 ft | 34 kts | 95° |
| 2026-04-23 15:22 | 42.69389 | 23.42970 | 1750 ft | 32 kts | 96° |
| 2026-04-23 15:22 | 42.69369 | 23.43259 | 1750 ft | 30 kts | 95° |
| 2026-04-23 15:23 | 42.69352 | 23.43528 | 1750 ft | 28 kts | 94° |
| 2026-04-23 15:23 | 42.69340 | 23.43742 | 1750 ft | 21 kts | 94° |
| 2026-04-23 15:23 | 42.69363 | 23.43941 | 1749 ft | 8 kts | 27° |
| 2026-04-23 15:23 | 42.69388 | 23.43948 | 1751 ft | 0 kts | 7° |
| 2026-04-23 15:24 | 42.69389 | 23.43948 | 1751 ft | 1 kts | 7° |
| 2026-04-23 15:24 | 42.69422 | 23.43952 | 1748 ft | 8 kts | 6° |
| 2026-04-23 15:24 | 42.69500 | 23.43952 | 1745 ft | 12 kts | 333° |
| 2026-04-23 15:25 | 42.69528 | 23.43792 | 1751 ft | 38 kts | 275° |
| 2026-04-23 15:25 | 42.69567 | 23.43138 | 1747 ft | 96 kts | 274° |
| 2026-04-23 15:25 | 42.69631 | 23.42037 | 1750 ft | 135 kts | 274° |
| 2026-04-23 15:25 | 42.69687 | 23.40710 | 2052 ft | 142 kts | 276° |
| 2026-04-23 15:26 | 42.69865 | 23.39392 | 2791 ft | 140 kts | 299° |
| 2026-04-23 15:26 | 42.70637 | 23.38525 | 3410 ft | 153 kts | 340° |
| 2026-04-23 15:26 | 42.71666 | 23.38424 | 4181 ft | 153 kts | 9° |
| 2026-04-23 15:26 | 42.72738 | 23.38903 | 4697 ft | 175 kts | 9° |
| 2026-04-23 15:27 | 42.74028 | 23.38834 | 5383 ft | 190 kts | 341° |
| 2026-04-23 15:27 | 42.75321 | 23.38536 | 6338 ft | 199 kts | 355° |
| 2026-04-23 15:27 | 42.76763 | 23.38446 | 6903 ft | 219 kts | 355° |
| 2026-04-23 15:27 | 42.78338 | 23.38312 | 7264 ft | 233 kts | 354° |
| 2026-04-23 15:28 | 42.79980 | 23.38176 | 7670 ft | 240 kts | 354° |
| 2026-04-23 15:28 | 42.81675 | 23.38032 | 8098 ft | 248 kts | 354° |
| 2026-04-23 15:28 | 42.83421 | 23.37839 | 8556 ft | 256 kts | 352° |
| 2026-04-23 15:28 | 42.85220 | 23.37528 | 9045 ft | 265 kts | 351° |
| 2026-04-23 15:29 | 42.87085 | 23.37185 | 9590 ft | 275 kts | 351° |
| 2026-04-23 15:29 | 42.89012 | 23.36834 | 10101 ft | 283 kts | 349° |
| 2026-04-23 15:29 | 42.90881 | 23.35906 | 10462 ft | 295 kts | 325° |
| 2026-04-23 15:29 | 42.92449 | 23.34014 | 10818 ft | 308 kts | 316° |
| 2026-04-23 15:30 | 42.93963 | 23.31871 | 11188 ft | 320 kts | 313° |
| 2026-04-23 15:30 | 42.95381 | 23.29448 | 11563 ft | 333 kts | 309° |
| 2026-04-23 15:30 | 42.96818 | 23.26887 | 11940 ft | 346 kts | 309° |
| 2026-04-23 15:30 | 42.98284 | 23.24223 | 12340 ft | 356 kts | 309° |
| 2026-04-23 15:31 | 42.99790 | 23.21478 | 12768 ft | 366 kts | 309° |
| 2026-04-23 15:31 | 43.01336 | 23.18662 | 13190 ft | 374 kts | 309° |
| 2026-04-23 15:31 | 43.02909 | 23.15791 | 13685 ft | 379 kts | 309° |
| 2026-04-23 15:31 | 43.04494 | 23.12906 | 14295 ft | 380 kts | 309° |
| 2026-04-23 15:32 | 43.06082 | 23.10011 | 14881 ft | 381 kts | 309° |
| 2026-04-23 15:32 | 43.07669 | 23.07109 | 15476 ft | 381 kts | 310° |
| 2026-04-23 15:32 | 43.09259 | 23.04207 | 16041 ft | 382 kts | 310° |
| 2026-04-23 15:32 | 43.10756 | 23.01198 | 16588 ft | 386 kts | 300° |
| 2026-04-23 15:33 | 43.11598 | 22.97681 | 17156 ft | 391 kts | 287° |
| 2026-04-23 15:33 | 43.12299 | 22.94145 | 17720 ft | 390 kts | 289° |
| 2026-04-23 15:33 | 43.13000 | 22.90558 | 18290 ft | 390 kts | 289° |
| 2026-04-23 15:33 | 43.13708 | 22.86976 | 18772 ft | 390 kts | 289° |
| 2026-04-23 15:34 | 43.14412 | 22.83393 | 19205 ft | 391 kts | 289° |
| 2026-04-23 15:34 | 43.15120 | 22.79791 | 19664 ft | 392 kts | 289° |
| 2026-04-23 15:34 | 43.15829 | 22.76184 | 20107 ft | 393 kts | 289° |
| 2026-04-23 15:34 | 43.16539 | 22.72573 | 20559 ft | 394 kts | 289° |
| 2026-04-23 15:35 | 43.17253 | 22.68938 | 20996 ft | 395 kts | 289° |
| 2026-04-23 15:35 | 43.17966 | 22.65302 | 21409 ft | 395 kts | 289° |
| 2026-04-23 15:35 | 43.18682 | 22.61657 | 21812 ft | 396 kts | 289° |
| 2026-04-23 15:35 | 43.19398 | 22.58010 | 22224 ft | 396 kts | 290° |
| 2026-04-23 15:36 | 43.20113 | 22.54360 | 22635 ft | 397 kts | 289° |
| 2026-04-23 15:36 | 43.20829 | 22.50706 | 23048 ft | 397 kts | 290° |
| 2026-04-23 15:36 | 43.21547 | 22.47047 | 23474 ft | 398 kts | 289° |
| 2026-04-23 15:36 | 43.22267 | 22.43379 | 23775 ft | 400 kts | 290° |
| 2026-04-23 15:37 | 43.22994 | 22.39667 | 23961 ft | 406 kts | 290° |
| 2026-04-23 15:37 | 43.23731 | 22.35906 | 24099 ft | 412 kts | 289° |
| 2026-04-23 15:37 | 43.24479 | 22.32086 | 24182 ft | 419 kts | 289° |
| 2026-04-23 15:37 | 43.25244 | 22.28180 | 24097 ft | 430 kts | 289° |
| 2026-04-23 15:38 | 43.26029 | 22.24168 | 24047 ft | 440 kts | 289° |
| 2026-04-23 15:38 | 43.26829 | 22.20074 | 24052 ft | 448 kts | 289° |
| 2026-04-23 15:38 | 43.27642 | 22.15914 | 24074 ft | 455 kts | 289° |
| 2026-04-23 15:38 | 43.28469 | 22.11694 | 24085 ft | 461 kts | 289° |
| 2026-04-23 15:39 | 43.29305 | 22.07416 | 24101 ft | 467 kts | 289° |
| 2026-04-23 15:39 | 43.30151 | 22.03084 | 24103 ft | 472 kts | 289° |
| 2026-04-23 15:39 | 43.31006 | 21.98707 | 24117 ft | 477 kts | 289° |
| 2026-04-23 15:39 | 43.31871 | 21.94288 | 24123 ft | 481 kts | 289° |
| 2026-04-23 15:40 | 43.32735 | 21.89861 | 24126 ft | 477 kts | 289° |
| 2026-04-23 15:40 | 43.33686 | 21.85582 | 24121 ft | 472 kts | 295° |
| 2026-04-23 15:40 | 43.34945 | 21.81426 | 24120 ft | 470 kts | 298° |
| 2026-04-23 15:40 | 43.36283 | 21.77331 | 24119 ft | 470 kts | 298° |
| 2026-04-23 15:41 | 43.37677 | 21.73308 | 24120 ft | 462 kts | 303° |
| 2026-04-23 15:41 | 43.39175 | 21.69418 | 24119 ft | 459 kts | 302° |
| 2026-04-23 15:41 | 43.40670 | 21.65566 | 24119 ft | 454 kts | 303° |
| 2026-04-23 15:41 | 43.42152 | 21.61754 | 24120 ft | 451 kts | 303° |
| 2026-04-23 15:42 | 43.43629 | 21.57966 | 24118 ft | 448 kts | 303° |
| 2026-04-23 15:42 | 43.45097 | 21.54199 | 24116 ft | 445 kts | 303° |
| 2026-04-23 15:42 | 43.46562 | 21.50434 | 24123 ft | 448 kts | 303° |
| 2026-04-23 15:42 | 43.48037 | 21.46640 | 24128 ft | 450 kts | 302° |
| 2026-04-23 15:43 | 43.49518 | 21.42832 | 24132 ft | 452 kts | 302° |
| 2026-04-23 15:43 | 43.51002 | 21.39008 | 24131 ft | 453 kts | 302° |
| 2026-04-23 15:43 | 43.52489 | 21.35177 | 24124 ft | 452 kts | 302° |
| 2026-04-23 15:43 | 43.53963 | 21.31375 | 24128 ft | 448 kts | 302° |
| 2026-04-23 15:44 | 43.55428 | 21.27599 | 24126 ft | 445 kts | 302° |
| 2026-04-23 15:44 | 43.56881 | 21.23852 | 24121 ft | 441 kts | 302° |
| 2026-04-23 15:44 | 43.58323 | 21.20132 | 24118 ft | 438 kts | 302° |
| 2026-04-23 15:44 | 43.59754 | 21.16434 | 24119 ft | 436 kts | 303° |
| 2026-04-23 15:45 | 43.61177 | 21.12758 | 24119 ft | 433 kts | 302° |
| 2026-04-23 15:45 | 43.62593 | 21.09101 | 24122 ft | 431 kts | 303° |
| 2026-04-23 15:45 | 43.64000 | 21.05462 | 24124 ft | 429 kts | 303° |
| 2026-04-23 15:45 | 43.65402 | 21.01833 | 24129 ft | 427 kts | 303° |
| 2026-04-23 15:46 | 43.66796 | 20.98226 | 24121 ft | 425 kts | 302° |
| 2026-04-23 15:46 | 43.68186 | 20.94631 | 24136 ft | 424 kts | 302° |
| 2026-04-23 15:46 | 43.69570 | 20.91038 | 24132 ft | 422 kts | 303° |
| 2026-04-23 15:46 | 43.70954 | 20.87456 | 24127 ft | 426 kts | 302° |
| 2026-04-23 15:47 | 43.72362 | 20.83807 | 24138 ft | 434 kts | 302° |
| 2026-04-23 15:47 | 43.73792 | 20.80094 | 24144 ft | 441 kts | 302° |
| 2026-04-23 15:47 | 43.75244 | 20.76323 | 24153 ft | 448 kts | 302° |
| 2026-04-23 15:47 | 43.76719 | 20.72492 | 24152 ft | 454 kts | 302° |
| 2026-04-23 15:48 | 43.78213 | 20.68615 | 24152 ft | 459 kts | 302° |
| 2026-04-23 15:48 | 43.79720 | 20.64693 | 24148 ft | 464 kts | 302° |
| 2026-04-23 15:48 | 43.81217 | 20.60777 | 24151 ft | 469 kts | 301° |
| 2026-04-23 15:48 | 43.82318 | 20.56522 | 24151 ft | 467 kts | 287° |
| 2026-04-23 15:49 | 43.82884 | 20.52130 | 23880 ft | 463 kts | 277° |
| 2026-04-23 15:49 | 43.83137 | 20.47712 | 23623 ft | 456 kts | 278° |
| 2026-04-23 15:49 | 43.83365 | 20.43368 | 23556 ft | 448 kts | 277° |
| 2026-04-23 15:49 | 43.83583 | 20.39093 | 23478 ft | 442 kts | 277° |
| 2026-04-23 15:50 | 43.83795 | 20.34869 | 23385 ft | 437 kts | 277° |
| 2026-04-23 15:50 | 43.84005 | 20.30696 | 23298 ft | 433 kts | 277° |
| 2026-04-23 15:50 | 43.84215 | 20.26548 | 23082 ft | 431 kts | 277° |
| 2026-04-23 15:50 | 43.84424 | 20.22406 | 22856 ft | 431 kts | 277° |
| 2026-04-23 15:51 | 43.84634 | 20.18268 | 22658 ft | 430 kts | 277° |
| 2026-04-23 15:51 | 43.84842 | 20.14138 | 22454 ft | 430 kts | 277° |
| 2026-04-23 15:51 | 43.85051 | 20.10003 | 22268 ft | 429 kts | 277° |
| 2026-04-23 15:51 | 43.85259 | 20.05885 | 22073 ft | 429 kts | 277° |
| 2026-04-23 15:52 | 43.85468 | 20.01767 | 21880 ft | 428 kts | 277° |
| 2026-04-23 15:52 | 43.85675 | 19.97656 | 21686 ft | 427 kts | 277° |
| 2026-04-23 15:52 | 43.85883 | 19.93548 | 21512 ft | 427 kts | 277° |
| 2026-04-23 15:52 | 43.86090 | 19.89449 | 21335 ft | 426 kts | 277° |
| 2026-04-23 15:53 | 43.86297 | 19.85359 | 21141 ft | 425 kts | 277° |
| 2026-04-23 15:53 | 43.86503 | 19.81273 | 20941 ft | 426 kts | 277° |
| 2026-04-23 15:53 | 43.86711 | 19.77168 | 20773 ft | 428 kts | 277° |
| 2026-04-23 15:53 | 43.86920 | 19.73053 | 20610 ft | 429 kts | 277° |
| 2026-04-23 15:54 | 43.87128 | 19.68915 | 20433 ft | 430 kts | 277° |
| 2026-04-23 15:54 | 43.87334 | 19.64827 | 20246 ft | 431 kts | 277° |
| 2026-04-23 15:54 | 43.87545 | 19.60679 | 20097 ft | 432 kts | 277° |
| 2026-04-23 15:54 | 43.87755 | 19.56526 | 19932 ft | 432 kts | 277° |
| 2026-04-23 15:55 | 43.87964 | 19.52365 | 19781 ft | 433 kts | 277° |
| 2026-04-23 15:55 | 43.88176 | 19.48207 | 19642 ft | 433 kts | 277° |
| 2026-04-23 15:55 | 43.88384 | 19.44051 | 19503 ft | 432 kts | 277° |
| 2026-04-23 15:55 | 43.88595 | 19.39898 | 19354 ft | 432 kts | 277° |
| 2026-04-23 15:56 | 43.88804 | 19.35739 | 19141 ft | 432 kts | 277° |
| 2026-04-23 15:56 | 43.89015 | 19.31588 | 18903 ft | 430 kts | 277° |
| 2026-04-23 15:56 | 43.89223 | 19.27463 | 18684 ft | 428 kts | 277° |
| 2026-04-23 15:56 | 43.89430 | 19.23351 | 18453 ft | 426 kts | 277° |
| 2026-04-23 15:57 | 43.89637 | 19.19263 | 18203 ft | 424 kts | 277° |
| 2026-04-23 15:57 | 43.89841 | 19.15198 | 17974 ft | 422 kts | 277° |
| 2026-04-23 15:57 | 43.90047 | 19.11156 | 17699 ft | 419 kts | 277° |
| 2026-04-23 15:57 | 43.90250 | 19.07135 | 17518 ft | 416 kts | 277° |
| 2026-04-23 15:58 | 43.90451 | 19.03154 | 17322 ft | 413 kts | 277° |
| 2026-04-23 15:58 | 43.90650 | 18.99188 | 17126 ft | 411 kts | 277° |
| 2026-04-23 15:58 | 43.90850 | 18.95248 | 16959 ft | 408 kts | 277° |
| 2026-04-23 15:58 | 43.91047 | 18.91334 | 16757 ft | 406 kts | 277° |
| 2026-04-23 15:59 | 43.91243 | 18.87437 | 16589 ft | 404 kts | 277° |
| 2026-04-23 15:59 | 43.91440 | 18.83561 | 16424 ft | 402 kts | 277° |
| 2026-04-23 15:59 | 43.91634 | 18.79694 | 16242 ft | 401 kts | 277° |
| 2026-04-23 15:59 | 43.91827 | 18.75898 | 16067 ft | 399 kts | 277° |
| 2026-04-23 16:00 | 43.92020 | 18.72060 | 15890 ft | 398 kts | 277° |
| 2026-04-23 16:00 | 43.92213 | 18.68244 | 15721 ft | 397 kts | 277° |
| 2026-04-23 16:00 | 43.92405 | 18.64431 | 15558 ft | 395 kts | 277° |
| 2026-04-23 16:00 | 43.92597 | 18.60631 | 15403 ft | 394 kts | 277° |
| 2026-04-23 16:01 | 43.92789 | 18.56846 | 15238 ft | 393 kts | 277° |
| 2026-04-23 16:01 | 43.92978 | 18.53069 | 15093 ft | 391 kts | 277° |
| 2026-04-23 16:01 | 43.92989 | 18.49292 | 14930 ft | 395 kts | 264° |
| 2026-04-23 16:01 | 43.92145 | 18.45660 | 14756 ft | 400 kts | 244° |
| 2026-04-23 16:02 | 43.90476 | 18.42583 | 14574 ft | 402 kts | 224° |
| 2026-04-23 16:02 | 43.88262 | 18.40359 | 14373 ft | 402 kts | 211° |
| 2026-04-23 16:02 | 43.85832 | 18.38426 | 14238 ft | 400 kts | 209° |
| 2026-04-23 16:02 | 43.83391 | 18.36588 | 14093 ft | 399 kts | 208° |
| 2026-04-23 16:03 | 43.80954 | 18.34764 | 13981 ft | 397 kts | 211° |
| 2026-04-23 16:03 | 43.78629 | 18.32705 | 13852 ft | 396 kts | 213° |
| 2026-04-23 16:03 | 43.76314 | 18.30648 | 13738 ft | 395 kts | 214° |
| 2026-04-23 16:03 | 43.74017 | 18.28565 | 13618 ft | 394 kts | 214° |
| 2026-04-23 16:04 | 43.71726 | 18.26489 | 13496 ft | 394 kts | 214° |
| 2026-04-23 16:04 | 43.69436 | 18.24418 | 13382 ft | 393 kts | 214° |
| 2026-04-23 16:04 | 43.67152 | 18.22353 | 13235 ft | 392 kts | 214° |
| 2026-04-23 16:04 | 43.64873 | 18.20298 | 13109 ft | 391 kts | 214° |
| 2026-04-23 16:05 | 43.63365 | 18.18936 | 13005 ft | 391 kts | 214° |
| 2026-04-23 16:05 | 43.60356 | 18.16223 | 12821 ft | 390 kts | 213° |
| 2026-04-23 16:05 | 43.58081 | 18.14178 | 12736 ft | 390 kts | 214° |
| 2026-04-23 16:05 | 43.55814 | 18.12136 | 12625 ft | 389 kts | 214° |
| 2026-04-23 16:06 | 43.53547 | 18.10101 | 12505 ft | 389 kts | 214° |
| 2026-04-23 16:06 | 43.51285 | 18.08069 | 12375 ft | 388 kts | 213° |
| 2026-04-23 16:06 | 43.49021 | 18.06038 | 12287 ft | 388 kts | 214° |
| 2026-04-23 16:06 | 43.46761 | 18.04011 | 12188 ft | 388 kts | 213° |
| 2026-04-23 16:07 | 43.44505 | 18.01990 | 12080 ft | 385 kts | 214° |
| 2026-04-23 16:07 | 43.42277 | 18.00001 | 11957 ft | 379 kts | 212° |
| 2026-04-23 16:07 | 43.39882 | 17.98603 | 11804 ft | 373 kts | 192° |
| 2026-04-23 16:07 | 43.37330 | 17.98454 | 11660 ft | 365 kts | 170° |
| 2026-04-23 16:08 | 43.34959 | 17.99519 | 11443 ft | 350 kts | 148° |
| 2026-04-23 16:08 | 43.33168 | 18.01547 | 11219 ft | 323 kts | 125° |
| 2026-04-23 16:08 | 43.32140 | 18.04149 | 11023 ft | 301 kts | 109° |
| 2026-04-23 16:08 | 43.31232 | 18.06679 | 10805 ft | 293 kts | 122° |
| 2026-04-23 16:09 | 43.29948 | 18.08815 | 10572 ft | 286 kts | 128° |
| 2026-04-23 16:09 | 43.28469 | 18.10592 | 10308 ft | 285 kts | 149° |
| 2026-04-23 16:09 | 43.26570 | 18.11321 | 10022 ft | 286 kts | 177° |
| 2026-04-23 16:09 | 43.24652 | 18.10817 | 9935 ft | 277 kts | 204° |
| 2026-04-23 16:10 | 43.22942 | 18.09704 | 9949 ft | 269 kts | 206° |
| 2026-04-23 16:10 | 43.21250 | 18.08631 | 9932 ft | 267 kts | 205° |
| 2026-04-23 16:10 | 43.19560 | 18.07590 | 9919 ft | 266 kts | 205° |
| 2026-04-23 16:10 | 43.17856 | 18.06549 | 9767 ft | 270 kts | 206° |
| 2026-04-23 16:11 | 43.16191 | 18.05360 | 9645 ft | 271 kts | 213° |
| 2026-04-23 16:11 | 43.14629 | 18.03911 | 9522 ft | 271 kts | 219° |
| 2026-04-23 16:11 | 43.13156 | 18.02327 | 9319 ft | 275 kts | 221° |
| 2026-04-23 16:11 | 43.11739 | 18.00542 | 9098 ft | 278 kts | 229° |
| 2026-04-23 16:12 | 43.10448 | 17.98543 | 8756 ft | 283 kts | 232° |
| 2026-04-23 16:12 | 43.09363 | 17.96280 | 8414 ft | 286 kts | 245° |
| 2026-04-23 16:12 | 43.08600 | 17.93787 | 8047 ft | 282 kts | 256° |
| 2026-04-23 16:12 | 43.08199 | 17.91200 | 7686 ft | 276 kts | 265° |
| 2026-04-23 16:13 | 43.07992 | 17.88611 | 7349 ft | 271 kts | 269° |
| 2026-04-23 16:13 | 43.09100 | 17.84062 | 6625 ft | 248 kts | 322° |
| 2026-04-23 16:13 | 43.10057 | 17.83271 | 6370 ft | 240 kts | 342° |
| 2026-04-23 16:14 | 43.11612 | 17.83126 | 5954 ft | 216 kts | 15° |
| 2026-04-23 16:14 | 43.12972 | 17.83761 | 5544 ft | 199 kts | 20° |
| 2026-04-23 16:14 | 43.14237 | 17.84401 | 5119 ft | 189 kts | 20° |
| 2026-04-23 16:14 | 43.15451 | 17.85004 | 4673 ft | 182 kts | 20° |
| 2026-04-23 16:15 | 43.16600 | 17.85578 | 4190 ft | 170 kts | 21° |
| 2026-04-23 16:15 | 43.17642 | 17.86109 | 3703 ft | 148 kts | 21° |
| 2026-04-23 16:15 | 43.18539 | 17.86565 | 3210 ft | 128 kts | 19° |
| 2026-04-23 16:15 | 43.19401 | 17.86731 | 2601 ft | 122 kts | 9° |
| 2026-04-23 16:16 | 43.20181 | 17.86896 | 2337 ft | 100 kts | 11° |
| 2026-04-23 16:16 | 43.20865 | 17.87102 | 1983 ft | 114 kts | 12° |
| 2026-04-23 16:16 | 43.21676 | 17.87349 | 1862 ft | 124 kts | 8° |
| 2026-04-23 16:16 | 43.22556 | 17.87487 | 1686 ft | 130 kts | 1° |
| 2026-04-23 16:17 | 43.23458 | 17.87398 | 1417 ft | 131 kts | 343° |
| 2026-04-23 16:17 | 43.24298 | 17.86898 | 1038 ft | 130 kts | 334° |
| 2026-04-23 16:17 | 43.25104 | 17.86358 | 715 ft | 131 kts | 337° |
| 2026-04-23 16:17 | 43.25930 | 17.85901 | 574 ft | 124 kts | 340° |
| 2026-04-23 16:18 | 43.26724 | 17.85462 | 332 ft | 121 kts | 340° |
| 2026-04-23 16:18 | 43.27475 | 17.85039 | 201 ft | 115 kts | 339° |
| 2026-04-23 16:18 | 43.28091 | 17.84701 | 169 ft | 75 kts | 339° |
| 2026-04-23 16:18 | 43.28452 | 17.84494 | 173 ft | 46 kts | 338° |
| 2026-04-23 16:19 | 43.28711 | 17.84357 | 173 ft | 35 kts | 333° |
| 2026-04-23 16:19 | 43.28849 | 17.84268 | 174 ft | 16 kts | 323° |
| 2026-04-23 16:19 | 43.28856 | 17.84195 | 176 ft | 7 kts | 249° |
| 2026-04-23 16:19 | 43.28822 | 17.84081 | 177 ft | 18 kts | 245° |
| 2026-04-23 16:20 | 43.28815 | 17.83962 | 177 ft | 12 kts | 327° |
| 2026-04-23 16:20 | 43.28908 | 17.83909 | 178 ft | 14 kts | 339° |
| 2026-04-23 16:20 | 43.28990 | 17.83865 | 176 ft | 13 kts | 339° |
| 2026-04-23 16:20 | 43.29057 | 17.83828 | 176 ft | 6 kts | 330° |
| 2026-04-23 16:21 | 43.29066 | 17.83788 | 176 ft | 4 kts | 250° |
| 2026-04-23 16:21 | 43.29062 | 17.83753 | 176 ft | 3 kts | 277° |
| 2026-04-23 16:21 | 43.29063 | 17.83728 | 176 ft | 2 kts | 261° |
| 2026-04-23 16:21 | 43.29059 | 17.83708 | 176 ft | 2 kts | 251° |
| 2026-04-23 16:22 | 43.29059 | 17.83691 | 176 ft | 2 kts | 304° |
| 2026-04-23 16:22 | 43.29068 | 17.83689 | 176 ft | 1 kts | 24° |
| 2026-04-23 16:22 | 43.29073 | 17.83694 | 176 ft | 0 kts | 35° |